Time;durP1;ratioP1;P1;durP2;ratioP2;P2;SDS_P1;SDS_P2;PMS_P1;PMS_P2;Temp;Humidity;BMP_temperature;BMP_pressure;BME280_temperature;BME280_humidity;BME280_pressure;Samples;Min_cycle;Max_cycle;Signal;HPM_P1;HPM_P2
2023/05/20 00:00:58;;;;;;;5.70;3.17;;;14.40;58.80;;;;;;4953629;28;20059;-81
2023/05/20 00:03:26;;;;;;;10.68;4.25;;;14.40;58.90;;;;;;4949991;28;20134;-80
2023/05/20 00:05:53;;;;;;;10.30;3.83;;;14.30;58.90;;;;;;4951116;28;20452;-81
2023/05/20 00:08:20;;;;;;;10.05;3.80;;;14.30;59.00;;;;;;4953133;28;20048;-81
2023/05/20 00:10:48;;;;;;;8.73;3.67;;;14.30;59.10;;;;;;4953792;28;20086;-81
2023/05/20 00:13:15;;;;;;;9.07;4.20;;;14.20;59.10;;;;;;4953834;28;20145;-81
2023/05/20 00:15:42;;;;;;;9.02;3.50;;;14.20;59.00;;;;;;4950624;28;20047;-80
2023/05/20 00:18:09;;;;;;;8.40;4.03;;;14.20;59.30;;;;;;4935995;28;20138;-81
2023/05/20 00:20:35;;;;;;;10.02;3.75;;;14.20;59.30;;;;;;4953477;28;20613;-81
2023/05/20 00:23:02;;;;;;;9.87;3.90;;;14.10;59.50;;;;;;4953494;28;20063;-80
2023/05/20 00:25:30;;;;;;;10.20;3.92;;;14.10;59.40;;;;;;4936513;28;20059;-80
2023/05/20 00:27:58;;;;;;;7.57;3.67;;;14.10;59.50;;;;;;4952948;28;20818;-81
2023/05/20 00:30:25;;;;;;;8.98;3.92;;;14.10;59.70;;;;;;4937264;28;20401;-81
2023/05/20 00:32:52;;;;;;;9.10;3.70;;;14.10;59.70;;;;;;4953091;28;20071;-80
2023/05/20 00:35:19;;;;;;;8.10;3.87;;;14.00;59.80;;;;;;4953300;28;20473;-80
2023/05/20 00:37:47;;;;;;;7.90;3.85;;;14.00;59.90;;;;;;4953365;28;20138;-81
2023/05/20 00:40:15;;;;;;;10.55;3.97;;;14.00;60.00;;;;;;4953434;28;20047;-81
2023/05/20 00:42:41;;;;;;;8.00;3.60;;;14.00;60.10;;;;;;4950779;28;20071;-81
2023/05/20 00:45:11;;;;;;;8.25;4.03;;;13.90;60.10;;;;;;4936973;28;20542;-80
2023/05/20 00:47:38;;;;;;;12.37;3.87;;;13.90;60.30;;;;;;4952978;28;20059;-80
2023/05/20 00:50:07;;;;;;;9.40;4.03;;;13.90;60.30;;;;;;4952890;28;20541;-81
2023/05/20 00:52:34;;;;;;;7.13;3.55;;;13.90;60.40;;;;;;4970865;28;20055;-81
2023/05/20 00:55:01;;;;;;;9.45;3.63;;;13.90;60.40;;;;;;4952875;28;20051;-81
2023/05/20 00:57:28;;;;;;;8.00;3.63;;;13.90;60.40;;;;;;4953059;28;20051;-80
2023/05/20 00:59:55;;;;;;;8.93;4.00;;;13.90;60.50;;;;;;4936248;28;20055;-80
2023/05/20 01:02:24;;;;;;;7.60;3.83;;;13.80;60.60;;;;;;4936717;28;20083;-81
2023/05/20 01:04:51;;;;;;;7.55;3.80;;;13.80;60.80;;;;;;4969940;28;20066;-80
2023/05/20 01:07:19;;;;;;;9.82;3.67;;;13.70;60.80;;;;;;4936777;28;20155;-80
2023/05/20 01:09:47;;;;;;;10.05;3.75;;;13.70;61.00;;;;;;4936886;28;20528;-80
2023/05/20 01:12:18;;;;;;;9.27;3.70;;;13.70;61.00;;;;;;4952632;28;20047;-80
2023/05/20 01:14:49;;;;;;;9.30;4.05;;;13.70;61.10;;;;;;4970703;28;20055;-80
2023/05/20 01:17:19;;;;;;;8.85;3.67;;;13.70;61.00;;;;;;4951543;28;20599;-80
2023/05/20 01:19:48;;;;;;;10.00;3.88;;;13.60;61.10;;;;;;4952466;28;20059;-81
2023/05/20 01:22:16;;;;;;;7.50;3.60;;;13.60;61.20;;;;;;4952682;28;20059;-81
2023/05/20 01:24:47;;;;;;;10.83;3.90;;;13.60;61.30;;;;;;4938717;28;20179;-80
2023/05/20 01:27:14;;;;;;;8.70;3.45;;;13.60;61.30;;;;;;4936511;28;20138;-80
2023/05/20 01:29:43;;;;;;;8.23;3.70;;;13.60;61.40;;;;;;4952927;28;20086;-80
2023/05/20 01:32:12;;;;;;;7.10;3.47;;;13.60;61.40;;;;;;4936287;28;20058;-80
2023/05/20 01:34:42;;;;;;;8.88;3.70;;;13.50;61.50;;;;;;4935437;28;20074;-81
2023/05/20 01:37:10;;;;;;;10.53;4.13;;;13.50;61.70;;;;;;4952680;28;20047;-81
2023/05/20 01:39:40;;;;;;;8.50;3.70;;;13.50;61.60;;;;;;4952643;28;20055;-81
2023/05/20 01:42:09;;;;;;;8.32;3.33;;;13.50;61.80;;;;;;4951933;28;20057;-81
2023/05/20 01:44:37;;;;;;;8.95;3.78;;;13.50;61.80;;;;;;4952213;28;20043;-80
2023/05/20 01:47:04;;;;;;;7.63;3.50;;;13.50;61.90;;;;;;4969819;28;20167;-80
2023/05/20 01:49:31;;;;;;;8.07;3.70;;;13.50;62.00;;;;;;4936395;28;20138;-80
2023/05/20 01:51:59;;;;;;;8.70;3.47;;;13.50;62.30;;;;;;4950367;28;20058;-81
2023/05/20 01:54:26;;;;;;;8.02;3.40;;;13.50;62.40;;;;;;4952128;28;20051;-81
2023/05/20 01:56:53;;;;;;;6.75;3.65;;;13.40;62.70;;;;;;4936239;28;20051;-80
2023/05/20 01:59:23;;;;;;;8.85;3.42;;;13.30;62.60;;;;;;4949082;28;20375;-81
2023/05/20 02:01:51;;;;;;;7.50;3.27;;;13.30;62.70;;;;;;4948553;28;20051;-80
2023/05/20 02:04:18;;;;;;;9.93;3.63;;;13.30;62.60;;;;;;4965105;28;20175;-80
2023/05/20 02:06:45;;;;;;;7.55;3.30;;;13.30;62.70;;;;;;4965042;28;20071;-80
2023/05/20 02:09:12;;;;;;;8.40;3.28;;;13.30;62.50;;;;;;4951048;28;20051;-80
2023/05/20 02:11:39;;;;;;;9.23;3.50;;;13.30;62.60;;;;;;4935073;28;20518;-80
2023/05/20 02:14:06;;;;;;;7.27;3.60;;;13.30;62.50;;;;;;4951734;28;20082;-81
2023/05/20 02:16:34;;;;;;;6.65;3.38;;;13.30;62.60;;;;;;4951807;28;20725;-81
2023/05/20 02:19:01;;;;;;;7.97;3.38;;;13.30;62.80;;;;;;4952416;28;20620;-81
2023/05/20 02:21:28;;;;;;;7.55;3.53;;;13.30;62.70;;;;;;4951808;28;20138;-81
2023/05/20 02:23:55;;;;;;;8.05;3.40;;;13.30;62.70;;;;;;4935999;28;20062;-81
2023/05/20 02:26:22;;;;;;;9.87;3.30;;;13.30;62.90;;;;;;4935193;28;20055;-81
2023/05/20 02:28:49;;;;;;;9.80;3.30;;;13.30;63.00;;;;;;4952066;28;20106;-81
2023/05/20 02:31:17;;;;;;;9.82;4.25;;;13.20;63.00;;;;;;4935741;28;20078;-81
2023/05/20 02:33:45;;;;;;;10.20;3.55;;;13.20;62.80;;;;;;4967716;28;20058;-81
2023/05/20 02:36:12;;;;;;;7.13;3.33;;;13.20;62.80;;;;;;4952062;28;20062;-81
2023/05/20 02:38:40;;;;;;;9.43;3.60;;;13.20;62.80;;;;;;4951674;28;20091;-81
2023/05/20 02:41:07;;;;;;;6.82;3.45;;;13.20;62.80;;;;;;4951095;28;20047;-81
2023/05/20 02:43:36;;;;;;;6.93;3.25;;;13.20;63.00;;;;;;4951321;28;20055;-81
2023/05/20 02:46:03;;;;;;;8.82;3.40;;;13.20;63.00;;;;;;4951441;28;20063;-81
2023/05/20 02:48:30;;;;;;;7.75;3.50;;;13.20;63.10;;;;;;4951918;28;20051;-81
2023/05/20 02:50:59;;;;;;;7.97;3.63;;;13.10;63.10;;;;;;4934969;28;20134;-82
2023/05/20 02:53:26;;;;;;;8.73;3.30;;;13.10;63.30;;;;;;4951443;28;20437;-81
2023/05/20 02:55:53;;;;;;;6.82;3.22;;;13.10;63.30;;;;;;4952043;28;20252;-81
2023/05/20 02:58:25;;;;;;;6.20;2.97;;;13.10;63.30;;;;;;4952104;28;20048;-81
2023/05/20 03:00:52;;;;;;;5.88;2.90;;;13.10;63.30;;;;;;4949645;28;20110;-81
2023/05/20 03:03:21;;;;;;;5.90;2.90;;;13.10;63.50;;;;;;4951488;28;20127;-81
2023/05/20 03:05:48;;;;;;;6.95;3.10;;;13.10;63.40;;;;;;4952767;28;20056;-81
2023/05/20 03:08:20;;;;;;;6.63;2.83;;;13.10;63.30;;;;;;4954580;28;20070;-81
2023/05/20 03:10:47;;;;;;;6.20;2.83;;;13.10;63.30;;;;;;4954436;28;20110;-81
2023/05/20 03:13:14;;;;;;;6.38;3.08;;;13.10;63.30;;;;;;4938532;28;20051;-81
2023/05/20 03:15:44;;;;;;;7.40;3.00;;;13.00;63.20;;;;;;4954671;28;20509;-81
2023/05/20 03:18:12;;;;;;;9.18;2.80;;;13.00;63.30;;;;;;4953705;28;20533;-81
2023/05/20 03:20:40;;;;;;;7.22;2.75;;;13.00;63.20;;;;;;4938370;28;20047;-81
2023/05/20 03:23:07;;;;;;;7.75;2.83;;;13.00;63.50;;;;;;4937954;28;20051;-81
2023/05/20 03:25:38;;;;;;;7.28;3.00;;;13.00;63.30;;;;;;4954651;28;20047;-81
2023/05/20 03:28:05;;;;;;;8.47;2.83;;;13.00;63.50;;;;;;4938266;28;20581;-81
2023/05/20 03:30:35;;;;;;;6.97;2.60;;;13.00;63.50;;;;;;4938268;28;20051;-81
2023/05/20 03:33:02;;;;;;;7.72;3.30;;;12.90;63.50;;;;;;4954410;28;20700;-81
2023/05/20 03:35:29;;;;;;;8.27;2.58;;;12.90;63.40;;;;;;4971019;28;20055;-81
2023/05/20 03:37:58;;;;;;;7.00;2.78;;;12.90;63.50;;;;;;4938417;28;20716;-81
2023/05/20 03:40:25;;;;;;;5.47;2.63;;;12.90;63.60;;;;;;4954444;28;20075;-81
2023/05/20 03:42:54;;;;;;;6.80;3.00;;;12.90;63.50;;;;;;4938059;28;20063;-81
2023/05/20 03:45:22;;;;;;;7.07;3.00;;;12.90;63.70;;;;;;4971666;28;20134;-81
2023/05/20 03:47:58;;;;;;;5.38;2.63;;;12.90;63.60;;;;;;4953721;28;20055;-81
2023/05/20 03:50:25;;;;;;;6.50;2.67;;;12.90;63.80;;;;;;4954425;28;20832;-80
2023/05/20 03:52:52;;;;;;;6.97;2.60;;;12.90;63.70;;;;;;4953001;28;20556;-81
2023/05/20 03:55:21;;;;;;;5.45;2.60;;;12.90;63.70;;;;;;4954334;28;20047;-81
2023/05/20 03:57:49;;;;;;;6.57;2.70;;;12.80;63.60;;;;;;4937927;28;20051;-81
2023/05/20 04:00:17;;;;;;;5.90;2.25;;;12.90;63.70;;;;;;4948589;28;20052;-81
2023/05/20 04:02:44;;;;;;;7.90;2.67;;;12.80;63.90;;;;;;4953769;28;20051;-81
2023/05/20 04:05:14;;;;;;;7.13;2.60;;;12.80;63.60;;;;;;4971326;28;20058;-81
2023/05/20 04:07:42;;;;;;;7.57;2.85;;;12.80;63.60;;;;;;4953911;28;20047;-81
2023/05/20 04:10:10;;;;;;;5.95;2.30;;;12.80;63.70;;;;;;4952976;28;20119;-81
2023/05/20 04:12:37;;;;;;;6.50;2.63;;;12.80;64.00;;;;;;4937916;28;20059;-81
2023/05/20 04:15:05;;;;;;;7.15;2.50;;;12.70;63.90;;;;;;4953980;28;20054;-81
2023/05/20 04:17:42;;;;;;;5.93;2.60;;;12.70;63.90;;;;;;4938059;28;20552;-81
2023/05/20 04:20:10;;;;;;;6.78;2.78;;;12.70;64.00;;;;;;4948161;28;20145;-81
2023/05/20 04:22:38;;;;;;;6.35;2.65;;;12.70;63.90;;;;;;4953583;28;20588;-81
2023/05/20 04:25:06;;;;;;;5.93;2.47;;;12.70;64.20;;;;;;4953515;28;20187;-81
2023/05/20 04:27:33;;;;;;;5.50;2.22;;;12.70;64.20;;;;;;4936718;28;20130;-81
2023/05/20 04:30:01;;;;;;;8.50;2.40;;;12.70;64.20;;;;;;4953594;28;20050;-81
2023/05/20 04:32:30;;;;;;;5.28;2.00;;;12.70;64.10;;;;;;4937480;28;20478;-81
2023/05/20 04:35:00;;;;;;;5.30;2.35;;;12.70;64.30;;;;;;4953272;28;20055;-81
2023/05/20 04:37:27;;;;;;;5.68;2.30;;;12.60;64.70;;;;;;4950186;28;20175;-80
2023/05/20 04:39:54;;;;;;;6.32;2.20;;;12.70;64.60;;;;;;4934345;28;20071;-80
2023/05/20 04:42:21;;;;;;;4.33;2.00;;;12.60;64.50;;;;;;4949765;28;20134;-81
2023/05/20 04:44:48;;;;;;;5.78;2.10;;;12.70;64.90;;;;;;4952270;28;20102;-81
2023/05/20 04:47:16;;;;;;;5.32;1.80;;;12.60;64.90;;;;;;4937614;28;20532;-81
2023/05/20 04:49:44;;;;;;;4.50;1.95;;;12.60;64.80;;;;;;4953683;28;20055;-81
2023/05/20 04:52:12;;;;;;;5.03;2.17;;;12.60;64.70;;;;;;4952777;28;20055;-81
2023/05/20 04:54:39;;;;;;;5.77;2.10;;;12.70;64.70;;;;;;4943855;28;20058;-81
2023/05/20 04:57:06;;;;;;;5.65;1.90;;;12.70;65.00;;;;;;4953288;28;20605;-81
2023/05/20 04:59:33;;;;;;;5.95;2.03;;;12.70;65.10;;;;;;4937257;28;20130;-81
2023/05/20 05:02:00;;;;;;;5.13;1.83;;;12.70;65.10;;;;;;4956527;28;20067;-81
2023/05/20 05:04:28;;;;;;;4.80;1.90;;;12.70;65.10;;;;;;4957711;28;20055;-81
2023/05/20 05:06:55;;;;;;;4.20;1.60;;;12.70;65.10;;;;;;4946000;28;20146;-81
2023/05/20 05:09:23;;;;;;;6.10;1.80;;;12.70;65.10;;;;;;4970101;28;20605;-81
2023/05/20 05:11:50;;;;;;;4.57;1.63;;;12.70;64.90;;;;;;4955354;28;20116;-81
2023/05/20 05:14:18;;;;;;;6.32;1.85;;;12.70;64.90;;;;;;4949133;28;20056;-81
2023/05/20 05:16:45;;;;;;;5.60;1.60;;;12.70;65.10;;;;;;4946156;28;20567;-81
2023/05/20 05:19:13;;;;;;;4.50;1.70;;;12.70;65.20;;;;;;4957850;28;20094;-81
2023/05/20 05:21:40;;;;;;;5.00;1.55;;;12.70;65.00;;;;;;4937100;28;20114;-81
2023/05/20 05:24:07;;;;;;;5.78;2.08;;;12.70;65.00;;;;;;4935387;28;20129;-82
2023/05/20 05:26:37;;;;;;;6.18;1.80;;;12.70;64.90;;;;;;4938185;28;20059;-82
2023/05/20 05:29:04;;;;;;;5.72;1.80;;;12.80;65.00;;;;;;4942349;28;20110;-82
2023/05/20 05:31:31;;;;;;;4.37;1.63;;;12.80;64.90;;;;;;4952107;28;20058;-81
2023/05/20 05:33:58;;;;;;;5.05;1.60;;;12.80;64.70;;;;;;4936408;28;20047;-81
2023/05/20 05:36:25;;;;;;;4.18;1.50;;;12.80;64.60;;;;;;4946237;28;20142;-83
2023/05/20 05:38:53;;;;;;;5.43;1.50;;;12.80;64.50;;;;;;4944687;28;20046;-82
2023/05/20 05:41:20;;;;;;;5.10;1.70;;;12.80;64.80;;;;;;4941869;28;20521;-82
2023/05/20 05:43:48;;;;;;;6.40;1.50;;;12.80;64.80;;;;;;4941529;28;20061;-81
2023/05/20 05:46:15;;;;;;;5.35;1.40;;;12.80;64.60;;;;;;4940563;28;20083;-82
2023/05/20 05:48:47;;;;;;;4.13;1.58;;;12.80;64.80;;;;;;4961040;28;20047;-81
2023/05/20 05:51:14;;;;;;;3.92;1.35;;;12.80;64.70;;;;;;4965245;28;20098;-82
2023/05/20 05:53:42;;;;;;;5.00;1.80;;;12.80;64.70;;;;;;4945127;28;20054;-81
2023/05/20 05:56:09;;;;;;;6.17;1.60;;;12.90;64.70;;;;;;4945388;28;20057;-81
2023/05/20 05:58:36;;;;;;;4.60;1.60;;;12.90;64.70;;;;;;4946010;28;20051;-82
2023/05/20 06:01:07;;;;;;;6.00;1.55;;;12.90;64.70;;;;;;4938536;28;20055;-81
2023/05/20 06:03:34;;;;;;;4.10;1.60;;;12.90;64.60;;;;;;4942496;28;20511;-82
2023/05/20 06:06:01;;;;;;;5.13;1.50;;;12.90;64.50;;;;;;4957703;28;20059;-81
2023/05/20 06:08:28;;;;;;;4.93;1.33;;;12.90;64.50;;;;;;4961168;28;20050;-82
2023/05/20 06:10:55;;;;;;;5.13;1.60;;;13.00;64.50;;;;;;4946874;28;20055;-82
2023/05/20 06:13:23;;;;;;;4.47;1.40;;;13.00;64.40;;;;;;4945142;28;20051;-82
2023/05/20 06:15:50;;;;;;;5.40;1.20;;;13.00;64.50;;;;;;4946950;28;20091;-82
2023/05/20 06:18:19;;;;;;;7.07;1.80;;;13.00;64.50;;;;;;4934537;28;21046;-82
2023/05/20 06:20:47;;;;;;;4.03;1.40;;;13.00;64.40;;;;;;4933963;28;20133;-82
2023/05/20 06:23:14;;;;;;;5.90;1.52;;;13.10;64.20;;;;;;4955264;28;20130;-81
2023/05/20 06:25:52;;;;;;;10.05;2.08;;;13.10;64.20;;;;;;4952697;28;20050;-82
2023/05/20 06:28:21;;;;;;;3.58;1.20;;;13.10;64.10;;;;;;4949964;28;20082;-82
2023/05/20 06:30:48;;;;;;;4.97;1.40;;;13.10;64.00;;;;;;4945592;28;20051;-82
2023/05/20 06:33:16;;;;;;;3.80;1.40;;;13.10;64.00;;;;;;4952481;28;20990;-82
2023/05/20 06:35:45;;;;;;;6.28;1.55;;;13.20;63.90;;;;;;4946372;28;20056;-82
2023/05/20 06:38:12;;;;;;;5.32;1.30;;;13.20;64.00;;;;;;4958294;28;20599;-82
2023/05/20 06:40:39;;;;;;;4.07;1.35;;;13.30;64.00;;;;;;4935550;28;20081;-82
2023/05/20 06:43:06;;;;;;;4.25;1.20;;;13.30;64.20;;;;;;4921250;28;20179;-82
2023/05/20 06:45:54;;;;;;;4.87;1.23;;;13.30;64.30;;;;;;4970485;28;20185;-83
2023/05/20 06:48:27;;;;;;;4.25;1.10;;;13.30;64.00;;;;;;4951729;28;20059;-82
2023/05/20 06:50:56;;;;;;;7.95;1.50;;;13.40;63.90;;;;;;4941170;28;20047;-82
2023/05/20 06:53:27;;;;;;;3.70;0.90;;;13.50;63.70;;;;;;4939619;28;20051;-86
2023/05/20 06:55:57;;;;;;;6.65;1.40;;;13.50;63.70;;;;;;4951568;28;20055;-83
2023/05/20 06:58:24;;;;;;;3.87;1.20;;;13.50;63.80;;;;;;4934055;28;20087;-81
2023/05/20 07:00:53;;;;;;;5.03;1.50;;;13.50;63.70;;;;;;4924490;28;20058;-81
2023/05/20 07:03:20;;;;;;;4.03;1.55;;;13.60;63.80;;;;;;4935657;28;20517;-84
2023/05/20 07:05:47;;;;;;;4.15;1.40;;;13.60;63.70;;;;;;4935822;28;20083;-85
2023/05/20 07:08:16;;;;;;;4.15;1.48;;;13.70;63.70;;;;;;4934750;28;20055;-85
2023/05/20 07:10:43;;;;;;;4.37;1.40;;;13.70;63.40;;;;;;4934396;28;20082;-82
2023/05/20 07:13:10;;;;;;;4.32;1.50;;;13.70;63.40;;;;;;4934516;28;20067;-81
2023/05/20 07:15:37;;;;;;;5.22;1.48;;;13.80;63.40;;;;;;4948940;28;20625;-81
2023/05/20 07:18:05;;;;;;;4.10;1.40;;;13.90;63.40;;;;;;4933921;28;20543;-82
2023/05/20 07:20:32;;;;;;;6.53;1.55;;;13.90;63.40;;;;;;4949715;28;20055;-80
2023/05/20 07:23:05;;;;;;;4.80;1.40;;;13.90;63.50;;;;;;4952123;28;20055;-82
2023/05/20 07:25:40;;;;;;;4.38;1.33;;;13.90;63.50;;;;;;4947654;28;20054;-82
2023/05/20 07:28:07;;;;;;;3.85;1.60;;;14.00;63.40;;;;;;4938217;28;20055;-82
2023/05/20 07:30:35;;;;;;;5.13;1.50;;;14.00;63.30;;;;;;4937292;28;20059;-83
2023/05/20 07:33:31;;;;;;;3.95;1.35;;;14.10;63.20;;;;;;4942849;28;20059;-82
2023/05/20 07:35:59;;;;;;;4.00;1.60;;;14.10;63.10;;;;;;4960049;28;20050;-83
2023/05/20 07:38:26;;;;;;;4.45;1.50;;;14.20;63.00;;;;;;4953782;28;20062;-82
2023/05/20 07:41:03;;;;;;;4.85;1.60;;;14.20;62.80;;;;;;4931644;28;20154;-83
2023/05/20 07:43:30;;;;;;;4.40;1.42;;;14.30;62.90;;;;;;4949449;28;20150;-82
2023/05/20 07:45:58;;;;;;;4.65;1.23;;;14.30;63.00;;;;;;4934456;28;20054;-84
2023/05/20 07:48:26;;;;;;;3.70;1.30;;;14.40;63.30;;;;;;4952464;28;20075;-84
2023/05/20 07:50:56;;;;;;;5.13;1.48;;;14.40;63.20;;;;;;4951169;28;20058;-84
2023/05/20 07:53:24;;;;;;;4.57;1.73;;;14.50;63.30;;;;;;4946890;28;20071;-84
2023/05/20 07:55:51;;;;;;;4.93;1.48;;;14.50;63.30;;;;;;4960424;28;20547;-81
2023/05/20 07:58:20;;;;;;;5.57;1.67;;;14.60;63.20;;;;;;4944787;28;20066;-80
2023/05/20 08:00:47;;;;;;;5.30;1.30;;;14.60;63.40;;;;;;4942595;28;20047;-81
2023/05/20 08:03:14;;;;;;;4.38;1.60;;;14.70;63.30;;;;;;4962624;28;20059;-82
2023/05/20 08:06:14;;;;;;;3.67;1.70;;;14.70;63.20;;;;;;4956771;28;20198;-80
2023/05/20 08:08:43;;;;;;;5.72;2.00;;;14.80;63.10;;;;;;4959097;28;20235;-80
2023/05/20 08:11:18;;;;;;;4.25;1.38;;;14.80;63.00;;;;;;4942126;28;20047;-83
2023/05/20 08:13:46;;;;;;;6.03;1.80;;;14.90;62.90;;;;;;4959968;28;20055;-82
2023/05/20 08:16:15;;;;;;;4.55;1.70;;;15.00;63.00;;;;;;4942412;28;20514;-82
2023/05/20 08:18:45;;;;;;;4.50;1.50;;;15.00;62.80;;;;;;4944804;28;20055;-83
2023/05/20 08:21:14;;;;;;;5.80;1.95;;;15.00;62.60;;;;;;4945368;28;20499;-82
2023/05/20 08:23:41;;;;;;;3.95;1.50;;;15.10;62.70;;;;;;4957211;28;20963;-82
2023/05/20 08:26:09;;;;;;;4.83;1.90;;;15.20;62.70;;;;;;4944237;28;21091;-85
2023/05/20 08:28:40;;;;;;;57.13;6.47;;;15.20;62.70;;;;;;4954584;28;20054;-83
2023/05/20 08:31:09;;;;;;;8.30;1.83;;;15.30;62.60;;;;;;4952926;28;20047;-84
2023/05/20 08:33:37;;;;;;;4.20;1.50;;;15.40;62.60;;;;;;4937566;28;20642;-83
2023/05/20 08:36:05;;;;;;;5.05;1.67;;;15.40;62.50;;;;;;4937927;28;20056;-81
2023/05/20 08:38:32;;;;;;;4.53;1.80;;;15.50;62.10;;;;;;4942809;28;20047;-80
2023/05/20 08:40:59;;;;;;;18.45;2.90;;;15.50;62.10;;;;;;4937287;28;20055;-82
2023/05/20 08:43:29;;;;;;;5.30;1.83;;;15.60;62.00;;;;;;4953092;28;20113;-83
2023/05/20 08:45:56;;;;;;;4.47;1.50;;;15.60;61.60;;;;;;4954148;28;20580;-82
2023/05/20 08:48:29;;;;;;;5.35;1.58;;;15.70;61.10;;;;;;4954354;28;20051;-83
2023/05/20 08:50:58;;;;;;;7.60;1.60;;;15.80;61.00;;;;;;4972493;28;20078;-81
2023/05/20 08:53:25;;;;;;;3.72;1.60;;;15.80;61.00;;;;;;4953548;28;20622;-81
2023/05/20 08:55:56;;;;;;;5.00;1.58;;;15.90;61.10;;;;;;4969433;28;20063;-81
2023/05/20 08:58:23;;;;;;;6.68;1.70;;;16.00;61.20;;;;;;4950742;28;20103;-81
2023/05/20 09:00:51;;;;;;;5.65;1.70;;;16.00;61.00;;;;;;4961494;28;20059;-84
2023/05/20 09:03:19;;;;;;;6.90;2.10;;;16.10;60.90;;;;;;4956529;28;20059;-81
2023/05/20 09:05:48;;;;;;;5.35;1.77;;;16.10;60.60;;;;;;4953521;28;20629;-83
2023/05/20 09:08:15;;;;;;;10.48;2.15;;;16.20;60.50;;;;;;4959033;28;20052;-82
2023/05/20 09:10:42;;;;;;;7.97;1.98;;;16.30;60.80;;;;;;4949310;28;20055;-82
2023/05/20 09:13:10;;;;;;;12.52;2.33;;;16.40;60.30;;;;;;4970650;28;20051;-82
2023/05/20 09:15:39;;;;;;;7.83;2.20;;;16.40;59.80;;;;;;4964250;28;20497;-82
2023/05/20 09:18:07;;;;;;;4.35;1.65;;;16.50;59.30;;;;;;4960486;28;20059;-83
2023/05/20 09:20:35;;;;;;;4.13;1.80;;;16.50;59.00;;;;;;4953490;28;20062;-84
2023/05/20 09:23:06;;;;;;;5.22;1.52;;;16.60;59.20;;;;;;4977529;28;20197;-81
2023/05/20 09:25:34;;;;;;;4.75;1.83;;;16.60;59.00;;;;;;4960388;28;20065;-85
2023/05/20 09:28:01;;;;;;;9.20;2.23;;;16.70;58.80;;;;;;4941756;28;20156;-81
2023/05/20 09:30:29;;;;;;;6.50;1.60;;;16.80;58.80;;;;;;4964281;28;20138;-83
2023/05/20 09:33:03;;;;;;;3.75;1.52;;;16.80;58.20;;;;;;4970584;28;20150;-82
2023/05/20 09:35:31;;;;;;;5.25;1.40;;;16.90;57.70;;;;;;4927115;28;20061;-81
2023/05/20 09:37:58;;;;;;;6.20;1.52;;;16.90;57.90;;;;;;4967967;28;21180;-84
2023/05/20 09:40:28;;;;;;;19.90;2.33;;;17.00;58.00;;;;;;4937679;28;20056;-79
2023/05/20 09:42:59;;;;;;;9.57;2.10;;;17.00;57.70;;;;;;4960931;28;20051;-82
2023/05/20 09:45:27;;;;;;;4.18;1.42;;;17.10;57.30;;;;;;4951292;28;20146;-82
2023/05/20 09:47:55;;;;;;;5.38;1.60;;;17.20;57.40;;;;;;4944382;28;20152;-81
2023/05/20 09:50:24;;;;;;;4.32;1.50;;;17.20;57.50;;;;;;4947516;28;20192;-81
2023/05/20 09:52:53;;;;;;;4.63;1.33;;;17.30;57.40;;;;;;4952718;28;20130;-81
2023/05/20 09:55:23;;;;;;;3.65;1.42;;;17.40;57.50;;;;;;4965684;28;20560;-80
2023/05/20 09:57:53;;;;;;;7.25;1.70;;;17.50;57.20;;;;;;4954301;28;20048;-80
2023/05/20 10:00:22;;;;;;;4.97;1.50;;;17.50;57.60;;;;;;4957107;28;20204;-81
2023/05/20 10:02:51;;;;;;;4.22;1.48;;;17.60;57.00;;;;;;4952774;28;20059;-81
2023/05/20 10:05:20;;;;;;;9.70;2.10;;;17.60;56.80;;;;;;4943291;28;20587;-81
2023/05/20 10:08:18;;;;;;;6.50;1.67;;;17.70;56.50;;;;;;4951327;28;20078;-81
2023/05/20 10:10:50;;;;;;;12.50;2.05;;;17.80;56.10;;;;;;4928782;28;20081;-81
2023/05/20 10:13:43;;;;;;;10.23;2.13;;;17.80;55.90;;;;;;4958230;28;20098;-82
2023/05/20 10:16:29;;;;;;;8.02;1.83;;;17.80;56.00;;;;;;4941066;28;20051;-82
2023/05/20 10:19:05;;;;;;;6.17;1.70;;;17.90;56.00;;;;;;4942749;28;20529;-82
2023/05/20 10:22:10;;;;;;;7.85;2.20;;;18.00;55.40;;;;;;4949885;28;20048;-81
2023/05/20 10:24:39;;;;;;;18.33;2.95;;;18.00;55.20;;;;;;4964603;28;20059;-83
2023/05/20 10:27:09;;;;;;;5.75;1.50;;;18.00;55.10;;;;;;4963837;28;20058;-83
2023/05/20 10:29:45;;;;;;;5.45;1.50;;;18.00;55.00;;;;;;4946673;28;20402;-82
2023/05/20 10:32:24;;;;;;;5.37;1.50;;;18.00;55.20;;;;;;4974573;28;20099;-82
2023/05/20 10:34:54;;;;;;;4.30;1.67;;;18.10;54.90;;;;;;4974480;28;20074;-83
2023/05/20 10:37:24;;;;;;;17.27;3.25;;;18.10;54.70;;;;;;4954868;28;20177;-83
2023/05/20 10:39:52;;;;;;;5.50;1.80;;;18.10;54.70;;;;;;4959809;28;20039;-82
2023/05/20 10:42:29;;;;;;;7.03;1.70;;;18.20;55.00;;;;;;4954576;28;20059;-80
2023/05/20 10:44:59;;;;;;;4.90;1.63;;;18.20;54.50;;;;;;4965926;28;20067;-82
2023/05/20 10:47:26;;;;;;;5.60;1.60;;;18.20;54.50;;;;;;4978508;28;20051;-83
2023/05/20 10:49:53;;;;;;;17.08;2.13;;;18.20;54.00;;;;;;4955876;28;20437;-83
2023/05/20 10:52:20;;;;;;;5.55;1.80;;;18.30;54.80;;;;;;4954825;28;20599;-81
2023/05/20 10:54:54;;;;;;;4.63;1.77;;;18.30;54.70;;;;;;4945659;28;20465;-80
2023/05/20 10:57:22;;;;;;;4.00;1.50;;;18.30;54.50;;;;;;4966294;28;20114;-80
2023/05/20 10:59:50;;;;;;;6.22;1.55;;;18.40;55.10;;;;;;4968363;28;20051;-81
2023/05/20 11:02:21;;;;;;;5.60;1.60;;;18.40;54.90;;;;;;4949645;28;20064;-81
2023/05/20 11:04:49;;;;;;;10.45;2.17;;;18.50;54.10;;;;;;4968572;28;20869;-80
2023/05/20 11:07:25;;;;;;;6.10;1.80;;;18.50;53.70;;;;;;4950061;28;20569;-80
2023/05/20 11:09:52;;;;;;;5.07;1.63;;;18.50;53.70;;;;;;4945931;28;20051;-80
2023/05/20 11:12:19;;;;;;;14.88;2.88;;;18.60;53.60;;;;;;4946223;28;20051;-81
2023/05/20 11:14:48;;;;;;;4.20;1.63;;;18.60;53.80;;;;;;4967332;28;20469;-81
2023/05/20 11:17:16;;;;;;;6.63;1.85;;;18.70;53.70;;;;;;4948934;28;20051;-81
2023/05/20 11:19:44;;;;;;;5.43;1.60;;;18.70;53.70;;;;;;4945915;28;20046;-81
2023/05/20 11:22:11;;;;;;;6.20;1.60;;;18.70;53.50;;;;;;4918078;28;20584;-81
2023/05/20 11:24:38;;;;;;;5.63;1.50;;;18.80;52.90;;;;;;4958046;28;20047;-81
2023/05/20 11:27:07;;;;;;;6.25;2.00;;;18.80;53.00;;;;;;4952414;28;20069;-82
2023/05/20 11:29:34;;;;;;;4.57;1.27;;;18.90;53.40;;;;;;4967427;28;20066;-80
2023/05/20 11:32:01;;;;;;;4.55;1.65;;;18.90;53.80;;;;;;4953126;28;20055;-81
2023/05/20 11:34:35;;;;;;;4.03;1.40;;;19.00;53.80;;;;;;4970218;28;21018;-81
2023/05/20 11:37:07;;;;;;;4.40;1.52;;;19.00;53.30;;;;;;4970143;28;20062;-81
2023/05/20 11:39:34;;;;;;;6.13;1.50;;;19.10;52.80;;;;;;4952858;28;20082;-81
2023/05/20 11:42:04;;;;;;;5.15;1.50;;;19.10;52.50;;;;;;4982899;28;20085;-82
2023/05/20 11:44:31;;;;;;;8.32;1.70;;;19.20;51.60;;;;;;4971157;28;20146;-81
2023/05/20 11:47:03;;;;;;;11.67;2.13;;;19.20;51.60;;;;;;4954708;28;20051;-81
2023/05/20 11:49:30;;;;;;;8.93;1.60;;;19.20;51.80;;;;;;4960932;28;20062;-81
2023/05/20 11:51:57;;;;;;;9.70;1.58;;;19.20;51.70;;;;;;4952692;28;20055;-80
2023/05/20 11:54:26;;;;;;;10.00;1.75;;;19.20;51.60;;;;;;4969517;28;20059;-82
2023/05/20 11:56:54;;;;;;;7.40;1.67;;;19.20;51.50;;;;;;4975035;28;20062;-82
2023/05/20 11:59:24;;;;;;;5.33;1.70;;;19.30;52.10;;;;;;4976737;28;20546;-80
2023/05/20 12:01:51;;;;;;;23.65;3.33;;;19.30;51.60;;;;;;4963518;28;20138;-79
2023/05/20 12:04:18;;;;;;;10.38;2.30;;;19.30;50.90;;;;;;4953372;28;20054;-84
2023/05/20 12:06:45;;;;;;;6.47;1.80;;;19.40;51.00;;;;;;4952651;28;20166;-85
2023/05/20 12:09:12;;;;;;;19.63;2.72;;;19.40;50.90;;;;;;4952301;28;20055;-83
2023/05/20 12:11:43;;;;;;;6.33;1.43;;;19.40;51.40;;;;;;4964116;28;20044;-80
2023/05/20 12:14:10;;;;;;;8.57;2.13;;;19.40;51.60;;;;;;4968665;28;20083;-81
2023/05/20 12:16:38;;;;;;;6.93;1.75;;;19.40;51.60;;;;;;4968703;28;20055;-81
2023/05/20 12:19:05;;;;;;;4.47;1.40;;;19.50;51.10;;;;;;4968765;28;20059;-81
2023/05/20 12:21:32;;;;;;;11.43;1.95;;;19.50;51.00;;;;;;4979974;28;20055;-81
2023/05/20 12:23:59;;;;;;;5.20;1.57;;;19.50;50.80;;;;;;4966661;28;20056;-81
2023/05/20 12:26:29;;;;;;;18.02;2.42;;;19.50;50.60;;;;;;4953758;28;20055;-81
2023/05/20 12:28:57;;;;;;;182.43;14.75;;;19.60;51.20;;;;;;4985764;28;20065;-81
2023/05/20 12:31:25;;;;;;;8.60;1.95;;;19.60;51.40;;;;;;4951639;28;20055;-80
2023/05/20 12:33:52;;;;;;;6.20;1.95;;;19.70;51.30;;;;;;4986040;28;20079;-81
2023/05/20 12:36:19;;;;;;;8.13;1.70;;;19.70;51.40;;;;;;4953567;28;20066;-81
2023/05/20 12:38:46;;;;;;;5.70;1.40;;;19.90;50.90;;;;;;4984700;28;20138;-81
2023/05/20 12:41:13;;;;;;;6.25;1.52;;;19.90;50.60;;;;;;4953050;28;20061;-81
2023/05/20 12:43:40;;;;;;;6.03;1.90;;;19.90;50.70;;;;;;4971235;28;20055;-81
2023/05/20 12:46:09;;;;;;;3.83;1.73;;;20.00;50.40;;;;;;4954053;28;20059;-82
2023/05/20 12:48:36;;;;;;;4.97;1.60;;;20.00;49.90;;;;;;4985255;28;20056;-80
2023/05/20 12:51:04;;;;;;;4.50;1.40;;;20.00;50.00;;;;;;4967986;28;20051;-79
2023/05/20 12:53:31;;;;;;;26.10;2.90;;;20.00;50.30;;;;;;4929511;28;20110;-80